Time;durP1;ratioP1;P1;durP2;ratioP2;P2;SDS_P1;SDS_P2;PMS_P1;PMS_P2;Temp;Humidity;BMP_temperature;BMP_pressure;BME280_temperature;BME280_humidity;BME280_pressure;Samples;Min_cycle;Max_cycle;Signal;HPM_P1;HPM_P2
2021/10/03 00:00:45;;;;;;;5.43;4.75;;;17.60;88.30;;;;;;5023963;28;20033;-60
2021/10/03 00:03:11;;;;;;;5.95;4.78;;;17.60;88.50;;;;;;5021446;28;20075;-60
2021/10/03 00:05:37;;;;;;;7.03;5.32;;;17.60;88.50;;;;;;4988414;28;20033;-60
2021/10/03 00:08:05;;;;;;;5.38;4.78;;;17.60;88.50;;;;;;5022068;28;20091;-60
2021/10/03 00:10:31;;;;;;;7.13;4.95;;;17.50;88.50;;;;;;5025712;28;20041;-60
2021/10/03 00:13:03;;;;;;;5.95;5.03;;;17.50;88.60;;;;;;5026490;28;20029;-60
2021/10/03 00:15:29;;;;;;;7.70;5.25;;;17.50;89.30;;;;;;5026886;28;20037;-61
2021/10/03 00:17:55;;;;;;;6.82;5.55;;;17.50;88.60;;;;;;5026261;28;20060;-61
2021/10/03 00:20:21;;;;;;;6.80;4.57;;;17.50;88.80;;;;;;5024619;28;20061;-61
2021/10/03 00:22:47;;;;;;;7.75;5.07;;;17.40;88.80;;;;;;5024727;28;20263;-60
2021/10/03 00:25:13;;;;;;;5.32;4.82;;;17.40;89.00;;;;;;5025299;28;20492;-60
2021/10/03 00:27:42;;;;;;;7.10;5.13;;;17.40;88.90;;;;;;5020278;28;20034;-61
2021/10/03 00:30:08;;;;;;;5.80;4.70;;;17.40;88.80;;;;;;5017091;28;20128;-60
2021/10/03 00:32:34;;;;;;;6.28;4.90;;;17.40;88.90;;;;;;5012196;28;20022;-60
2021/10/03 00:34:59;;;;;;;6.22;4.78;;;17.40;89.00;;;;;;5016937;28;20155;-61
2021/10/03 00:37:25;;;;;;;5.30;4.80;;;17.40;88.90;;;;;;5015182;28;20057;-60
2021/10/03 00:39:51;;;;;;;7.90;5.20;;;17.30;88.80;;;;;;5025574;28;20104;-60
2021/10/03 00:42:16;;;;;;;6.00;4.68;;;17.30;88.90;;;;;;5013433;28;20026;-61
2021/10/03 00:44:42;;;;;;;6.05;4.70;;;17.30;89.00;;;;;;5017065;28;20037;-61
2021/10/03 00:47:07;;;;;;;6.30;4.88;;;17.30;89.00;;;;;;5027202;28;20022;-60
2021/10/03 00:49:36;;;;;;;5.97;5.25;;;17.30;88.90;;;;;;5023315;28;20052;-60
2021/10/03 00:52:06;;;;;;;7.45;4.68;;;17.30;88.90;;;;;;5024861;28;20108;-60
2021/10/03 00:54:31;;;;;;;6.68;4.78;;;17.30;89.00;;;;;;5023963;28;20076;-60
2021/10/03 00:56:57;;;;;;;6.32;4.93;;;17.30;89.00;;;;;;5019535;28;20064;-60
2021/10/03 00:59:23;;;;;;;5.05;4.50;;;17.20;88.90;;;;;;5016254;28;20531;-61
2021/10/03 01:01:48;;;;;;;6.72;4.63;;;17.30;89.10;;;;;;4993331;28;20026;-60
2021/10/03 01:04:14;;;;;;;6.25;4.85;;;17.30;89.00;;;;;;5010004;28;20036;-61
2021/10/03 01:06:41;;;;;;;5.43;4.68;;;17.20;89.00;;;;;;5022871;28;20157;-60
2021/10/03 01:09:07;;;;;;;5.28;4.45;;;17.20;89.00;;;;;;5020254;28;20045;-61
2021/10/03 01:11:32;;;;;;;6.25;4.75;;;17.20;89.10;;;;;;5013317;28;20045;-60
2021/10/03 01:13:58;;;;;;;5.80;4.50;;;17.20;89.10;;;;;;5027798;28;20480;-60
2021/10/03 01:16:23;;;;;;;5.07;4.57;;;17.20;89.20;;;;;;5027816;28;20034;-60
2021/10/03 01:18:49;;;;;;;6.70;4.65;;;17.20;89.20;;;;;;5016073;28;20101;-60
2021/10/03 01:21:15;;;;;;;5.15;4.57;;;17.10;89.10;;;;;;5021271;28;20064;-61
2021/10/03 01:23:42;;;;;;;7.63;4.80;;;17.10;89.10;;;;;;5011263;28;20466;-61
2021/10/03 01:26:08;;;;;;;7.90;4.85;;;17.10;89.10;;;;;;5025875;28;20501;-60
2021/10/03 01:28:33;;;;;;;5.13;4.63;;;17.10;89.20;;;;;;5021673;28;20044;-60
2021/10/03 01:30:59;;;;;;;6.22;4.97;;;17.00;89.20;;;;;;4995631;28;20026;-60
2021/10/03 01:33:26;;;;;;;6.05;4.53;;;17.00;89.20;;;;;;5010415;28;20049;-61
2021/10/03 01:35:52;;;;;;;6.28;4.95;;;17.10;89.30;;;;;;5019578;28;20477;-60
2021/10/03 01:38:18;;;;;;;6.65;4.93;;;17.00;89.40;;;;;;5023594;28;20093;-60
2021/10/03 01:40:45;;;;;;;7.03;4.72;;;17.00;89.40;;;;;;5015762;28;20080;-60
2021/10/03 01:43:11;;;;;;;5.47;4.70;;;17.00;89.40;;;;;;5013975;28;20070;-60
2021/10/03 01:45:36;;;;;;;6.88;4.60;;;17.00;89.40;;;;;;5017331;28;20071;-61
2021/10/03 01:48:11;;;;;;;8.20;4.63;;;17.00;89.50;;;;;;5027920;28;20029;-61
2021/10/03 01:50:45;;;;;;;4.63;4.20;;;16.90;89.40;;;;;;5028497;28;20083;-61
2021/10/03 01:53:22;;;;;;;6.10;4.95;;;16.90;89.50;;;;;;5026347;28;20013;-60
2021/10/03 01:55:48;;;;;;;6.40;4.85;;;16.90;89.50;;;;;;5022195;28;20029;-60
2021/10/03 01:58:15;;;;;;;6.97;4.90;;;16.90;89.50;;;;;;5028353;28;20491;-60
2021/10/03 02:00:41;;;;;;;5.28;4.78;;;16.90;89.60;;;;;;5023440;28;20413;-61
2021/10/03 02:03:07;;;;;;;5.30;4.80;;;16.90;89.70;;;;;;5027322;28;20044;-60
2021/10/03 02:05:34;;;;;;;6.90;4.65;;;16.80;89.60;;;;;;5027536;28;20043;-61
2021/10/03 02:07:59;;;;;;;5.18;4.68;;;16.80;89.70;;;;;;5024085;28;20037;-60
2021/10/03 02:10:26;;;;;;;5.25;4.55;;;16.80;89.70;;;;;;5012870;28;20040;-60
2021/10/03 02:12:51;;;;;;;6.55;4.88;;;16.80;89.70;;;;;;5016415;28;20264;-61
2021/10/03 02:15:17;;;;;;;7.30;4.63;;;16.80;89.80;;;;;;5013428;28;20320;-60
2021/10/03 02:17:43;;;;;;;5.75;5.13;;;16.80;89.90;;;;;;5026678;28;20029;-60
2021/10/03 02:20:08;;;;;;;6.35;4.40;;;16.80;89.90;;;;;;5019009;28;20175;-61
2021/10/03 02:22:34;;;;;;;5.25;4.65;;;16.80;89.80;;;;;;5014476;28;20374;-60
2021/10/03 02:24:59;;;;;;;4.57;4.05;;;16.70;89.90;;;;;;5021209;28;20034;-60
2021/10/03 02:27:25;;;;;;;5.18;4.68;;;16.70;89.90;;;;;;5028527;28;20033;-60
2021/10/03 02:29:51;;;;;;;5.53;4.38;;;16.70;89.90;;;;;;5018798;28;20524;-61
2021/10/03 02:32:17;;;;;;;6.72;4.60;;;16.70;90.00;;;;;;5026281;28;20045;-60
2021/10/03 02:34:42;;;;;;;7.53;4.35;;;16.70;90.00;;;;;;5026696;28;20066;-61
2021/10/03 02:37:08;;;;;;;6.43;4.85;;;16.70;90.00;;;;;;5023734;28;20030;-60
2021/10/03 02:39:33;;;;;;;6.10;4.78;;;16.70;89.90;;;;;;5019242;28;20047;-60
2021/10/03 02:41:59;;;;;;;5.20;4.70;;;16.70;90.00;;;;;;5014482;28;20823;-60
2021/10/03 02:44:24;;;;;;;4.43;4.03;;;16.70;90.00;;;;;;5026793;28;20175;-60
2021/10/03 02:46:50;;;;;;;6.65;4.32;;;16.70;90.00;;;;;;5026577;28;20435;-60
2021/10/03 02:49:15;;;;;;;7.55;4.60;;;16.70;90.00;;;;;;5026297;28;20370;-60
2021/10/03 02:51:41;;;;;;;5.30;4.22;;;16.70;90.00;;;;;;5028342;28;20068;-60
2021/10/03 02:54:06;;;;;;;4.60;4.20;;;16.60;90.00;;;;;;5026927;28;20037;-60
2021/10/03 02:56:32;;;;;;;5.65;4.78;;;16.60;90.00;;;;;;5025263;28;20747;-61
2021/10/03 02:58:58;;;;;;;5.93;4.65;;;16.60;90.00;;;;;;5025599;28;20029;-60
2021/10/03 03:01:23;;;;;;;6.95;4.50;;;16.60;90.00;;;;;;5026212;28;20071;-60
2021/10/03 03:03:49;;;;;;;5.15;4.13;;;16.60;90.00;;;;;;5026721;28;20030;-60
2021/10/03 03:06:14;;;;;;;5.32;4.10;;;16.60;90.00;;;;;;5017315;28;20435;-60
2021/10/03 03:08:40;;;;;;;5.10;4.28;;;16.60;90.00;;;;;;5024387;28;20509;-60
2021/10/03 03:11:07;;;;;;;4.82;4.13;;;16.50;90.00;;;;;;5026814;28;20025;-60
2021/10/03 03:13:33;;;;;;;7.68;4.13;;;16.50;90.10;;;;;;5025390;28;20025;-60
2021/10/03 03:15:59;;;;;;;5.28;4.45;;;16.50;90.10;;;;;;5020836;28;20036;-61
2021/10/03 03:18:24;;;;;;;6.60;4.38;;;16.50;90.10;;;;;;5025492;28;20110;-60
2021/10/03 03:20:50;;;;;;;7.00;4.38;;;16.50;90.10;;;;;;5027545;28;20083;-61
2021/10/03 03:23:15;;;;;;;4.40;3.80;;;16.50;90.10;;;;;;5009006;28;20159;-60
2021/10/03 03:25:41;;;;;;;4.72;4.25;;;16.50;90.10;;;;;;5021583;28;20045;-60
2021/10/03 03:28:09;;;;;;;4.88;4.38;;;16.50;90.10;;;;;;5025851;28;20021;-60
2021/10/03 03:30:35;;;;;;;5.15;4.40;;;16.50;90.10;;;;;;5022896;28;20362;-60
2021/10/03 03:33:01;;;;;;;5.20;4.15;;;16.50;90.10;;;;;;5008195;28;20386;-60
2021/10/03 03:35:26;;;;;;;5.05;4.25;;;16.50;90.20;;;;;;5022367;28;20488;-60
2021/10/03 03:37:52;;;;;;;5.43;4.10;;;16.50;90.20;;;;;;5018986;28;20477;-60
2021/10/03 03:40:19;;;;;;;4.97;4.00;;;16.40;90.20;;;;;;5026070;28;20037;-60
2021/10/03 03:42:45;;;;;;;5.38;4.22;;;16.40;90.20;;;;;;5019477;28;20168;-60
2021/10/03 03:45:11;;;;;;;4.82;3.90;;;16.40;90.20;;;;;;5025500;28;20108;-61
2021/10/03 03:47:37;;;;;;;4.30;3.90;;;16.40;90.20;;;;;;5024766;28;20033;-60
2021/10/03 03:50:04;;;;;;;4.78;4.38;;;16.40;90.20;;;;;;5025459;28;20033;-60
2021/10/03 03:52:29;;;;;;;5.07;4.10;;;16.40;90.20;;;;;;5017031;28;20045;-60
2021/10/03 03:54:55;;;;;;;6.60;4.10;;;16.40;90.30;;;;;;5021375;28;20041;-60
2021/10/03 03:57:20;;;;;;;5.68;4.50;;;16.40;90.30;;;;;;5025621;28;20021;-60
2021/10/03 03:59:46;;;;;;;4.85;4.03;;;16.40;90.30;;;;;;5023260;28;20036;-60
2021/10/03 04:02:12;;;;;;;5.40;4.32;;;16.40;90.30;;;;;;5024474;28;20033;-61
2021/10/03 04:04:37;;;;;;;5.13;4.22;;;16.40;90.30;;;;;;5024603;28;20037;-61
2021/10/03 04:07:04;;;;;;;6.72;4.30;;;16.40;90.30;;;;;;5019154;28;20022;-60
2021/10/03 04:09:30;;;;;;;5.32;4.35;;;16.30;90.30;;;;;;5019367;28;20018;-60
2021/10/03 04:11:56;;;;;;;5.13;3.88;;;16.30;90.40;;;;;;5025331;28;20499;-60
2021/10/03 04:14:22;;;;;;;4.40;4.00;;;16.30;90.40;;;;;;5024839;28;20093;-61
2021/10/03 04:16:47;;;;;;;5.22;4.45;;;16.30;90.40;;;;;;5025918;28;20127;-60
2021/10/03 04:19:13;;;;;;;4.38;3.97;;;16.30;90.40;;;;;;5022958;28;20241;-61
2021/10/03 04:21:38;;;;;;;5.00;4.00;;;16.30;90.50;;;;;;5026934;28;20457;-60
2021/10/03 04:24:04;;;;;;;6.30;5.05;;;16.30;90.50;;;;;;5023522;28;20034;-60
2021/10/03 04:26:29;;;;;;;7.25;4.15;;;16.30;90.50;;;;;;5025311;28;20045;-60
2021/10/03 04:28:55;;;;;;;5.25;4.00;;;16.20;90.50;;;;;;5008156;28;20114;-60
2021/10/03 04:31:21;;;;;;;6.78;4.63;;;16.30;90.50;;;;;;5027524;28;20101;-60
2021/10/03 04:33:46;;;;;;;5.70;4.22;;;16.30;90.50;;;;;;5025940;28;20469;-60
2021/10/03 04:36:12;;;;;;;4.40;4.00;;;16.20;90.50;;;;;;5023688;28;20026;-60
2021/10/03 04:38:38;;;;;;;6.85;4.00;;;16.20;90.50;;;;;;5025470;28;20067;-60
2021/10/03 04:41:04;;;;;;;4.93;4.18;;;16.20;90.50;;;;;;5017810;28;20036;-60
2021/10/03 04:43:29;;;;;;;5.18;4.32;;;16.20;90.60;;;;;;5024973;28;20026;-60
2021/10/03 04:45:55;;;;;;;5.13;3.88;;;16.20;90.60;;;;;;5026850;28;20057;-60
2021/10/03 04:48:20;;;;;;;6.80;4.47;;;16.20;90.60;;;;;;5029546;28;20283;-61
2021/10/03 04:50:46;;;;;;;5.88;4.32;;;16.20;90.70;;;;;;5027692;28;20037;-60
2021/10/03 04:53:11;;;;;;;6.55;4.55;;;16.20;90.70;;;;;;5030573;28;20509;-60
2021/10/03 04:55:37;;;;;;;11.30;4.70;;;16.20;90.80;;;;;;5022423;28;20481;-60
2021/10/03 04:58:02;;;;;;;11.15;4.65;;;16.20;90.90;;;;;;5029277;28;20067;-60
2021/10/03 05:00:28;;;;;;;11.10;5.03;;;16.20;90.90;;;;;;5022910;28;20048;-60
2021/10/03 05:02:54;;;;;;;5.85;4.50;;;16.20;90.90;;;;;;5030293;28;20029;-60
2021/10/03 05:05:20;;;;;;;12.77;5.30;;;16.20;90.80;;;;;;5026218;28;20096;-60
2021/10/03 05:07:46;;;;;;;6.57;4.55;;;16.20;90.80;;;;;;5027809;28;20115;-60
2021/10/03 05:10:11;;;;;;;9.77;4.53;;;16.20;90.80;;;;;;5028671;28;20026;-60
2021/10/03 05:12:37;;;;;;;8.05;4.20;;;16.20;90.80;;;;;;5029111;28;20017;-60
2021/10/03 05:15:03;;;;;;;6.70;4.00;;;16.20;90.80;;;;;;5027880;28;20389;-61
2021/10/03 05:17:30;;;;;;;12.63;4.32;;;16.20;90.80;;;;;;5028200;28;20500;-60
2021/10/03 05:19:55;;;;;;;6.93;4.40;;;16.30;90.90;;;;;;5030519;28;20032;-60
2021/10/03 05:22:22;;;;;;;7.63;4.60;;;16.20;91.00;;;;;;5030443;28;20105;-60
2021/10/03 05:24:47;;;;;;;10.50;4.65;;;16.20;91.10;;;;;;5028312;28;20037;-60
2021/10/03 05:27:13;;;;;;;13.10;4.85;;;16.20;91.10;;;;;;5028891;28;20072;-60
2021/10/03 05:29:38;;;;;;;11.73;4.75;;;16.30;91.30;;;;;;5028500;28;20144;-60
2021/10/03 05:32:04;;;;;;;5.50;4.40;;;16.30;91.40;;;;;;5029349;28;20404;-60
2021/10/03 05:34:30;;;;;;;6.18;4.30;;;16.30;91.70;;;;;;5028767;28;20445;-60
2021/10/03 05:36:55;;;;;;;9.73;4.93;;;16.20;91.40;;;;;;5026781;28;20037;-61
2021/10/03 05:39:21;;;;;;;7.80;4.65;;;16.20;91.40;;;;;;5026586;28;20028;-60
2021/10/03 05:41:46;;;;;;;8.00;4.57;;;16.20;91.50;;;;;;5029195;28;20036;-60
2021/10/03 05:44:12;;;;;;;5.82;4.40;;;16.30;91.40;;;;;;5026730;28;20026;-60
2021/10/03 05:46:37;;;;;;;9.60;4.35;;;16.20;91.40;;;;;;5022758;28;20039;-60
2021/10/03 05:49:03;;;;;;;9.45;4.65;;;16.30;91.40;;;;;;5027592;28;20038;-60
2021/10/03 05:51:29;;;;;;;10.35;4.50;;;16.20;91.40;;;;;;5012471;28;20091;-60
2021/10/03 05:53:54;;;;;;;9.25;5.05;;;16.20;91.40;;;;;;5027476;28;20029;-60
2021/10/03 05:56:20;;;;;;;9.43;4.65;;;16.20;91.40;;;;;;5028097;28;20360;-61
2021/10/03 05:58:45;;;;;;;8.20;4.80;;;16.20;91.50;;;;;;5027126;28;20434;-61
2021/10/03 06:01:11;;;;;;;10.35;4.60;;;16.20;91.60;;;;;;5009662;28;20493;-60
2021/10/03 06:03:37;;;;;;;7.35;4.38;;;16.20;91.60;;;;;;5026682;28;20029;-61
2021/10/03 06:06:02;;;;;;;6.97;4.32;;;16.30;91.60;;;;;;5027769;28;20497;-60
2021/10/03 06:08:28;;;;;;;8.05;4.97;;;16.30;91.60;;;;;;5025771;28;20469;-61
2021/10/03 06:10:53;;;;;;;6.72;5.13;;;16.30;91.60;;;;;;5028498;28;20041;-60
2021/10/03 06:13:19;;;;;;;8.23;4.40;;;16.30;91.60;;;;;;5027912;28;20036;-60
2021/10/03 06:15:44;;;;;;;9.25;4.57;;;16.30;91.70;;;;;;5029839;28;20029;-60
2021/10/03 06:18:11;;;;;;;6.75;4.78;;;16.30;91.60;;;;;;5030398;28;20037;-60
2021/10/03 06:20:36;;;;;;;10.07;5.18;;;16.30;91.70;;;;;;5027282;28;20029;-60
2021/10/03 06:23:02;;;;;;;9.20;5.15;;;16.30;91.70;;;;;;5027219;28;20146;-60
2021/10/03 06:25:27;;;;;;;10.45;5.30;;;16.30;91.80;;;;;;5025087;28;20385;-60
2021/10/03 06:27:53;;;;;;;11.95;5.05;;;16.30;91.90;;;;;;5029242;28;20026;-60
2021/10/03 06:30:19;;;;;;;7.55;5.05;;;16.30;92.00;;;;;;5028710;28;20033;-60
2021/10/03 06:32:44;;;;;;;6.43;5.22;;;16.40;92.20;;;;;;5029591;28;20037;-60
2021/10/03 06:35:10;;;;;;;10.57;5.03;;;16.40;92.20;;;;;;5023731;28;20041;-60
2021/10/03 06:37:36;;;;;;;41.97;8.00;;;16.30;92.10;;;;;;5028046;28;20132;-60
2021/10/03 06:40:02;;;;;;;74.63;8.95;;;16.40;92.50;;;;;;5027769;28;20032;-61
2021/10/03 06:42:28;;;;;;;56.58;8.88;;;16.30;92.40;;;;;;5028357;28;20028;-61
2021/10/03 06:44:53;;;;;;;19.88;6.10;;;16.30;92.40;;;;;;5026603;28;20025;-61
2021/10/03 06:47:19;;;;;;;20.17;6.47;;;16.30;92.40;;;;;;5028560;28;20370;-61
2021/10/03 06:49:44;;;;;;;16.58;5.45;;;16.40;92.30;;;;;;5028548;28;20057;-60
2021/10/03 06:52:10;;;;;;;12.65;5.45;;;16.30;92.40;;;;;;5026016;28;20120;-60
2021/10/03 06:54:36;;;;;;;13.70;5.70;;;16.40;92.40;;;;;;5031438;28;20036;-61
2021/10/03 06:57:02;;;;;;;11.27;5.47;;;16.40;92.50;;;;;;5025807;28;20037;-61
2021/10/03 06:59:27;;;;;;;17.42;6.05;;;16.40;92.50;;;;;;5021693;28;20486;-60
2021/10/03 07:01:53;;;;;;;11.93;5.72;;;16.40;92.40;;;;;;5004597;28;20044;-60
2021/10/03 07:04:19;;;;;;;10.23;5.30;;;16.40;92.30;;;;;;5021664;28;20030;-60
2021/10/03 07:06:44;;;;;;;11.30;5.80;;;16.40;92.30;;;;;;5016244;28;20037;-60
2021/10/03 07:09:10;;;;;;;17.52;6.63;;;16.40;92.20;;;;;;5012752;28;20069;-60
2021/10/03 07:11:36;;;;;;;18.45;5.78;;;16.40;92.30;;;;;;4996021;28;20132;-60
2021/10/03 07:14:01;;;;;;;13.18;6.45;;;16.40;92.30;;;;;;5016617;28;20171;-60
2021/10/03 07:16:26;;;;;;;13.20;6.88;;;16.40;92.30;;;;;;5015341;28;20422;-60
2021/10/03 07:18:52;;;;;;;14.75;5.93;;;16.40;92.80;;;;;;5010598;28;20568;-60
2021/10/03 07:21:17;;;;;;;12.05;6.60;;;16.40;92.50;;;;;;5013996;28;20052;-60
2021/10/03 07:23:43;;;;;;;15.25;5.75;;;16.40;92.50;;;;;;5012860;28;20150;-60
2021/10/03 07:26:08;;;;;;;13.35;6.63;;;16.50;92.60;;;;;;5018618;28;20052;-60
2021/10/03 07:28:34;;;;;;;11.18;6.18;;;16.40;92.60;;;;;;5013558;28;20051;-60
2021/10/03 07:31:00;;;;;;;15.02;6.82;;;16.50;92.60;;;;;;5023340;28;20060;-60
2021/10/03 07:33:26;;;;;;;10.82;6.07;;;16.40;92.70;;;;;;4999539;28;20358;-60
2021/10/03 07:35:51;;;;;;;12.18;6.32;;;16.40;92.70;;;;;;5021471;28;20044;-60
2021/10/03 07:38:17;;;;;;;14.35;7.07;;;16.50;92.80;;;;;;5023448;28;20029;-60
2021/10/03 07:40:46;;;;;;;13.48;7.38;;;16.50;92.80;;;;;;5002982;28;20033;-61
2021/10/03 07:43:11;;;;;;;11.85;7.03;;;16.50;92.80;;;;;;5020343;28;20484;-61
2021/10/03 07:45:37;;;;;;;10.15;6.72;;;16.50;92.80;;;;;;5017704;28;20037;-60
2021/10/03 07:48:03;;;;;;;13.23;6.63;;;16.50;93.00;;;;;;5014107;28;20180;-61
2021/10/03 07:50:28;;;;;;;10.90;6.90;;;16.50;93.00;;;;;;5019336;28;20032;-61
2021/10/03 07:52:54;;;;;;;11.93;6.57;;;16.50;93.10;;;;;;5022119;28;20029;-60
2021/10/03 07:55:20;;;;;;;8.27;6.38;;;16.50;93.00;;;;;;5020508;28;20025;-61
2021/10/03 07:57:45;;;;;;;8.45;6.28;;;16.50;93.10;;;;;;5012282;28;20030;-60
2021/10/03 08:00:11;;;;;;;10.68;6.53;;;16.50;93.10;;;;;;5023372;28;20056;-60
2021/10/03 08:02:37;;;;;;;10.63;6.63;;;16.50;93.10;;;;;;5020325;28;20029;-61
2021/10/03 08:05:03;;;;;;;12.05;7.05;;;16.50;93.20;;;;;;5018992;28;20144;-60
2021/10/03 08:07:29;;;;;;;10.25;6.28;;;16.50;93.60;;;;;;5019494;28;20096;-61
2021/10/03 08:09:55;;;;;;;14.35;7.30;;;16.50;93.70;;;;;;5015390;28;20113;-60
2021/10/03 08:12:21;;;;;;;14.35;6.90;;;16.50;93.80;;;;;;5021422;28;20057;-60
2021/10/03 08:14:47;;;;;;;15.50;6.95;;;16.50;94.10;;;;;;5022734;28;20049;-60
2021/10/03 08:17:12;;;;;;;9.02;6.63;;;16.50;94.10;;;;;;5026252;28;20092;-60
2021/10/03 08:19:38;;;;;;;16.60;6.97;;;16.50;94.20;;;;;;5020006;28;20095;-61
2021/10/03 08:22:03;;;;;;;16.52;8.50;;;16.50;94.20;;;;;;5016440;28;20073;-60
2021/10/03 08:24:29;;;;;;;16.10;7.97;;;16.60;94.40;;;;;;5020586;28;20025;-60
2021/10/03 08:26:55;;;;;;;23.00;9.18;;;16.60;94.40;;;;;;5019605;28;20050;-60
2021/10/03 08:29:21;;;;;;;24.33;8.55;;;16.60;94.50;;;;;;5028841;28;20036;-60
2021/10/03 08:31:47;;;;;;;21.52;8.10;;;16.60;94.20;;;;;;5030113;28;20374;-60
2021/10/03 08:34:12;;;;;;;29.30;8.60;;;16.70;94.50;;;;;;5023509;28;20113;-60
2021/10/03 08:36:38;;;;;;;21.35;8.77;;;16.70;94.60;;;;;;5022925;28;20033;-61
2021/10/03 08:39:03;;;;;;;43.00;9.88;;;16.80;94.90;;;;;;5023003;28;20041;-60
2021/10/03 08:41:29;;;;;;;31.42;9.18;;;16.70;95.10;;;;;;5007942;28;20123;-60
2021/10/03 08:43:54;;;;;;;26.90;9.77;;;16.90;95.10;;;;;;5026978;28;20432;-60
2021/10/03 08:46:24;;;;;;;32.17;9.02;;;16.90;95.10;;;;;;5017435;28;20125;-60
2021/10/03 08:48:50;;;;;;;31.02;10.07;;;16.90;94.80;;;;;;5021870;28;20080;-61
2021/10/03 08:51:16;;;;;;;33.95;10.98;;;17.00;94.80;;;;;;5021365;28;20034;-61
2021/10/03 08:53:41;;;;;;;34.58;10.85;;;17.00;94.90;;;;;;5025618;28;20051;-61
2021/10/03 08:56:07;;;;;;;43.60;11.15;;;17.10;95.10;;;;;;5021620;28;20080;-61
2021/10/03 08:58:33;;;;;;;35.10;10.95;;;17.10;95.00;;;;;;5014384;28;20047;-63
2021/10/03 09:00:59;;;;;;;51.60;10.98;;;17.20;95.00;;;;;;5016445;28;20065;-61
2021/10/03 09:03:24;;;;;;;48.33;10.35;;;17.30;95.00;;;;;;5003048;28;20072;-60
2021/10/03 09:05:54;;;;;;;55.70;11.50;;;17.30;94.90;;;;;;5025393;28;20025;-60
2021/10/03 09:08:25;;;;;;;40.30;11.93;;;17.10;94.80;;;;;;5022928;28;20033;-60
2021/10/03 09:10:55;;;;;;;72.53;12.18;;;17.40;94.70;;;;;;5024184;28;20025;-60
2021/10/03 09:13:23;;;;;;;48.90;11.82;;;17.50;94.80;;;;;;5025273;28;20042;-60
2021/10/03 09:16:05;;;;;;;50.28;11.68;;;17.50;94.60;;;;;;5021385;28;20036;-60
2021/10/03 09:18:50;;;;;;;43.42;11.20;;;17.60;94.60;;;;;;5024241;28;20533;-61
2021/10/03 09:21:31;;;;;;;46.63;11.70;;;17.70;94.30;;;;;;5024978;28;20041;-60
2021/10/03 09:24:04;;;;;;;71.55;11.77;;;17.80;94.20;;;;;;5023999;28;20559;-60
2021/10/03 09:26:30;;;;;;;50.97;12.15;;;17.80;94.10;;;;;;5023365;28;20053;-60
2021/10/03 09:28:56;;;;;;;58.58;12.05;;;17.90;94.00;;;;;;5015667;28;20116;-60
2021/10/03 09:31:22;;;;;;;56.45;12.05;;;17.90;94.10;;;;;;5019531;28;20113;-61
2021/10/03 09:33:52;;;;;;;79.97;12.68;;;18.00;93.80;;;;;;5005528;28;21563;-60
2021/10/03 09:36:25;;;;;;;61.30;12.90;;;18.00;93.80;;;;;;5021276;28;20022;-60
2021/10/03 09:38:55;;;;;;;55.92;12.80;;;18.10;93.70;;;;;;5021740;28;20081;-61
2021/10/03 09:41:29;;;;;;;76.78;12.38;;;18.30;93.60;;;;;;5004650;28;20044;-61
2021/10/03 09:43:56;;;;;;;80.63;14.65;;;18.30;93.70;;;;;;5023946;28;20040;-60
2021/10/03 09:46:33;;;;;;;78.57;13.95;;;18.30;93.50;;;;;;5019302;28;20041;-63
2021/10/03 09:48:59;;;;;;;99.80;12.95;;;18.40;93.40;;;;;;5026796;28;20043;-60
2021/10/03 09:51:24;;;;;;;60.75;12.52;;;18.50;93.30;;;;;;5022945;28;20033;-61
2021/10/03 09:53:50;;;;;;;166.77;18.58;;;18.60;93.20;;;;;;5019142;28;20025;-61
2021/10/03 09:56:15;;;;;;;77.72;12.85;;;18.60;92.90;;;;;;5007039;28;20145;-61
2021/10/03 09:58:41;;;;;;;83.53;14.57;;;18.70;92.80;;;;;;5003054;28;20090;-60
2021/10/03 10:01:07;;;;;;;93.07;13.77;;;18.60;92.90;;;;;;5018163;28;20025;-60
2021/10/03 10:03:35;;;;;;;88.72;16.05;;;18.90;92.70;;;;;;5022930;28;20081;-61
2021/10/03 10:06:00;;;;;;;99.03;14.90;;;18.80;92.50;;;;;;5015146;28;20069;-61
2021/10/03 10:08:26;;;;;;;107.95;14.15;;;18.90;92.40;;;;;;5014875;28;20107;-60
2021/10/03 10:10:53;;;;;;;89.80;14.15;;;19.00;92.10;;;;;;5015684;28;20069;-61
2021/10/03 10:13:19;;;;;;;120.88;15.32;;;19.00;91.90;;;;;;4993381;28;20473;-60
2021/10/03 10:15:45;;;;;;;97.03;15.48;;;19.10;91.60;;;;;;5009024;28;20026;-60
2021/10/03 10:18:24;;;;;;;107.30;16.27;;;19.10;91.40;;;;;;4992134;28;20103;-61
2021/10/03 10:20:50;;;;;;;79.50;13.55;;;19.10;91.60;;;;;;5008307;28;20022;-60
2021/10/03 10:23:16;;;;;;;110.60;15.05;;;19.20;91.50;;;;;;5006748;28;20540;-61
2021/10/03 10:25:52;;;;;;;104.03;14.38;;;19.20;91.30;;;;;;5020412;28;20053;-59
2021/10/03 10:28:27;;;;;;;86.65;13.63;;;19.20;91.30;;;;;;5016147;28;20053;-60
2021/10/03 10:31:03;;;;;;;85.32;13.85;;;19.30;91.10;;;;;;5018044;28;20068;-60
2021/10/03 10:33:51;;;;;;;103.25;15.07;;;19.30;91.00;;;;;;5023614;28;20104;-60
2021/10/03 10:36:21;;;;;;;75.80;11.45;;;19.30;90.80;;;;;;5031646;28;20101;-60
2021/10/03 10:39:08;;;;;;;85.72;12.95;;;19.40;90.70;;;;;;5016751;28;20067;-61
2021/10/03 10:41:41;;;;;;;101.10;13.63;;;19.40;90.50;;;;;;5011345;28;20473;-61
2021/10/03 10:44:27;;;;;;;102.05;15.27;;;19.40;90.50;;;;;;5016448;28;20037;-61
2021/10/03 10:46:59;;;;;;;91.07;14.75;;;19.50;90.50;;;;;;5016239;28;20638;-61
2021/10/03 10:49:29;;;;;;;115.00;16.17;;;19.60;90.40;;;;;;5019758;28;20040;-61
2021/10/03 10:52:25;;;;;;;77.80;13.93;;;19.60;90.60;;;;;;5016855;28;20029;-61
2021/10/03 10:55:00;;;;;;;83.18;14.20;;;19.60;90.50;;;;;;5017173;28;20472;-61
2021/10/03 10:57:26;;;;;;;76.45;13.02;;;19.70;90.40;;;;;;5021772;28;20021;-60
2021/10/03 11:00:22;;;;;;;83.65;13.73;;;19.70;90.50;;;;;;5019002;28;20124;-61
2021/10/03 11:02:48;;;;;;;93.55;14.73;;;19.70;90.70;;;;;;5018946;28;20049;-61
2021/10/03 11:05:36;;;;;;;66.18;12.15;;;19.80;90.90;;;;;;5015197;28;20037;-61
2021/10/03 11:08:11;;;;;;;85.15;13.65;;;19.80;91.00;;;;;;5014020;28;20029;-61
2021/10/03 11:10:59;;;;;;;129.00;15.23;;;19.90;91.10;;;;;;5020101;28;20037;-60
2021/10/03 11:13:44;;;;;;;74.57;13.77;;;19.90;90.70;;;;;;5016812;28;20029;-60
2021/10/03 11:16:34;;;;;;;78.87;12.80;;;20.00;90.90;;;;;;5014174;28;20025;-61
2021/10/03 11:19:10;;;;;;;84.68;12.23;;;20.00;90.80;;;;;;5016173;28;20029;-61
2021/10/03 11:21:45;;;;;;;120.40;14.68;;;20.10;90.90;;;;;;5013815;28;20440;-60
2021/10/03 11:24:15;;;;;;;72.45;12.63;;;20.10;90.90;;;;;;5014373;28;20033;-61
2021/10/03 11:26:45;;;;;;;84.07;12.68;;;20.20;90.80;;;;;;4993644;28;20079;-60
2021/10/03 11:29:11;;;;;;;132.68;14.48;;;20.20;90.70;;;;;;5012753;28;20122;-60
2021/10/03 11:31:48;;;;;;;86.32;13.48;;;20.30;90.60;;;;;;5016057;28;20041;-60
2021/10/03 11:34:28;;;;;;;61.47;11.52;;;20.30;90.50;;;;;;5003279;28;20232;-61
2021/10/03 11:36:54;;;;;;;82.55;14.15;;;20.30;90.50;;;;;;5014719;28;20040;-60
2021/10/03 11:39:43;;;;;;;62.30;11.85;;;20.40;90.70;;;;;;5022431;28;20022;-61
2021/10/03 11:42:10;;;;;;;76.55;11.45;;;20.40;90.50;;;;;;5027351;28;20025;-61
2021/10/03 11:44:36;;;;;;;65.22;13.27;;;20.40;90.50;;;;;;4997372;28;20049;-60
2021/10/03 11:47:07;;;;;;;66.82;10.40;;;20.40;90.30;;;;;;5018060;28;20037;-61
2021/10/03 11:49:38;;;;;;;58.35;11.95;;;20.50;90.30;;;;;;5006943;28;20200;-61
2021/10/03 11:52:04;;;;;;;74.53;12.60;;;20.50;90.30;;;;;;5015942;28;20044;-61
2021/10/03 11:54:31;;;;;;;76.25;12.77;;;20.60;90.20;;;;;;5014227;28;20029;-61
2021/10/03 11:56:57;;;;;;;82.32;12.98;;;20.70;90.20;;;;;;5013555;28;20174;-61
2021/10/03 11:59:22;;;;;;;62.25;12.23;;;20.70;90.20;;;;;;5011429;28;20076;-61
2021/10/03 12:01:48;;;;;;;61.55;11.65;;;20.70;90.00;;;;;;4986587;28;20160;-61
2021/10/03 12:04:25;;;;;;;73.10;11.25;;;20.70;89.40;;;;;;5016651;28;20144;-61
2021/10/03 12:06:50;;;;;;;60.80;11.75;;;20.80;89.40;;;;;;5014856;28;20072;-61
2021/10/03 12:09:17;;;;;;;54.15;10.77;;;20.80;89.00;;;;;;5003885;28;20056;-61
2021/10/03 12:11:49;;;;;;;83.68;12.75;;;20.80;89.10;;;;;;5013945;28;20401;-61
2021/10/03 12:14:15;;;;;;;79.47;13.90;;;20.90;89.10;;;;;;5013050;28;20193;-61
2021/10/03 12:16:53;;;;;;;46.20;10.07;;;20.90;89.10;;;;;;5019159;28;20038;-61
2021/10/03 12:19:19;;;;;;;78.57;11.65;;;21.00;88.80;;;;;;5019136;28;20113;-60
2021/10/03 12:21:44;;;;;;;74.10;12.20;;;21.00;88.60;;;;;;5017058;28;20748;-61
2021/10/03 12:24:11;;;;;;;61.70;11.43;;;21.00;88.50;;;;;;5018045;28;20117;-61
2021/10/03 12:26:46;;;;;;;71.25;11.80;;;21.10;88.10;;;;;;5016295;28;20200;-61
2021/10/03 12:29:20;;;;;;;64.57;11.67;;;21.10;88.10;;;;;;5014796;28;20030;-61
2021/10/03 12:32:13;;;;;;;84.68;13.27;;;21.20;88.10;;;;;;5009580;28;20129;-61
2021/10/03 12:34:49;;;;;;;61.90;11.88;;;21.20;88.00;;;;;;5021921;28;20067;-62
2021/10/03 12:37:17;;;;;;;65.30;12.75;;;21.20;87.40;;;;;;5003381;28;20060;-61
2021/10/03 12:39:45;;;;;;;61.85;11.30;;;21.20;87.40;;;;;;5017085;28;20029;-61